Gillette, WY (82718)

12:05 PM MDT on October 02, 2014 (GMT -0600)
South Gillette, Swanson Road | Change Station
CLOSE
Current Station
Personal Weather Station
Location: Gillette, WY
Elevation: 4580 ft
Nearby Weather Stations

Elev 4580 ft 44.24 °N, 105.48 °W | Updated 7 seconds ago

Clear
Clear
53.6 °F
Feels Like 53.6 °F
N
2.2
Wind Variable Wind from North
Gusts 4.5 mph

Today
High -- | Low -- °F
--% Chance of Precip.
Yesterday
High -- | Low -- °F
Precip. -- in
7:01 AM 6:40 PM
First Quarter, 61% visible
Pressure 30.01 in
Visibility 10.0 miles
Clouds Mostly Cloudy 10000 ft
Dew Point 29 °F
Humidity 39%
Rainfall 0.00 in
Snow Depth 0 in , 0 in , 0 in
UV 3 out of 12
Pollen 3.30 out of 12
Air Quality Not available.
Flu Activity Not available.
METAR KGCC 021753Z AUTO 30003KT 10SM BKN100 13/M01 A3003 RMK AO2 SLP161 T01281011 10128 20044 50003

More Conditions Fewer Conditions

Pressure 30.01 in
Visibility 10.0 miles
Clouds Mostly Cloudy 10000 ft
Dew Point 29 °F
Humidity 39%
Rainfall 0.00 in
Snow Depth 0 in , 0 in , 0 in
UV 3 out of 12
Pollen 3.30 out of 12
Air Quality Not available.
Flu Activity Not available.
METAR KGCC 021753Z AUTO 30003KT 10SM BKN100 13/M01 A3003 RMK AO2 SLP161 T01281011 10128 20044 50003

More Conditions Fewer Conditions

10-Day Weather Forecast

Almanac

Astronomy

Oct. 02, 2014 Rise Set
Actual Time 7:01 AM MDT 6:40 PM MDT
Civil Twilight 6:32 AM MDT 7:09 PM MDT
Nautical Twilight 5:58 AM MDT 7:43 PM MDT
Astronomical Twilight 5:24 AM MDT 8:17 PM MDT
Moon 3:00 PM MDT 12:08 AM MDT
Length of Visible Light 12h 37m
Length of Day
11h 39m
Tomorrow will be 3m 1s shorter.
First Quarter, 61% of the Moon is Illuminated
Today
First Quarter
Oct 8
Full
Oct 15
Last Quarter
Oct 23
New
Oct 30
First Quarter

Today's Extremes

State Highs State Lows

Community

WunderPhotos

Upload Photos

1,758,316 photos uploaded!

WunderBlogs® & News

Nearby

Snow Depth

Station Depth Elevation
Crow Creek 0 in 8330 ft
Snake River Station 0 in 6920 ft
Spring Creek Divide 0 in 9000 ft
Reno Hill 0 in 8500 ft
Kendall R.S. 1 in 7740 ft

Earthquake Activity

City Distance Mag. Time & Date
No recent earthquake activity has been reported nearby.
Minimum magnitude displayed is 2.5.

Coastal Water Temperatures

Place Temperature
No Stations Reporting

Nearby Weather Stations